Greater Rochester International Airport
KROC : now visible

Airfield :











YOU CAN JOIN US ON...

 
LOGIN :

Register | Disclaimer

   EN    FR    IT 

 









Legend :    VFR   Marginal VFR   IFR   Intensive IFR   Very Intensive IFR
Visi :
Ceiling :
>= 8 km
>= 3000ft
5 to 8 km
1000 to 3000 ft
1500m to 5 km
500 to 1000 ft
800 to 1500m
200 to 500 ft
< 800m
< 200 ft
Symbols :   Thunderstorms  Fog  Heavy snow  Heavy precipitations  Wind > 20 kt






- Airport Elevation : 559 ft
- IATA code : ROC


KROC - Greater Rochester International

CURRENT METAR :
  • 070954Z 29010KT 10SM SCT015 BKN023 OVC095 14/11 A2993 RMK AO2 SLP139 T01390106

EXPIRED METARs :
  • 070854Z 26008KT 10SM BKN075 OVC095 14/09 A2991 RMK AO2 SLP130 T01440094 53002
  • 070754Z 23007KT 10SM OVC100 13/09 A2990 RMK AO2 SLP128 T01330094

TAF KROC
Valid from the 07 at 09:00 until the 08 at 06:00 UTC


070849Z 0709/0806 27009KT P6SM VCSH BKN060
FM071000 28010G18KT 6SM -SHRA BKN015
FM071500 29013G23KT P6SM VCSH BKN025
FM072200 30012G18KT P6SM BKN035
KZOB FIR / North America



MET'MAP, your aeronautical weather chart ! - Copyright ORBIFLY December 2007 - Disclaimer

ORBIFLY MET'MAP TEAM :

Programming & Development : Alexandra Zaïnal
Original concept : Baudouin d'Aumeries
Technical & hardware support : Manuel Goepfert
Assistance : Marc-Olivier Méhu




SOURCES & CREDITS :

   NOAA       Earth
Advisory